Lake Sherwood, Missouri
Current Conditions -  °F | °C
As of 10:35 AM on Monday 24 Nov 2014 (Local Time) from KFYG Reporting Station
Overcast Overcast  
Wind Chill: 33°   Ceiling: 3300
Heat Index: 37°   Visibility: 10mi
Dew Point: 28°   Wind: 6mph
Humidity: 70%   Direction: 260°W
Pressure: 29.7"   Gusts: NA
Location:  38.6485°N, 91.0773°W
Report Text: KFYG 241635Z AUTO 26005KT 10SM BKN033 OVC040 03/M02 A2970 RMK AO2
Loading
Personal Weather Stations






























Interactive Weather Map New forecast layout! Learn more

10-Day Weather Forecast

Advertisements
Track Severe Weather on mobile